createdAt,value
2022-08-26T11:20:34.243Z,45.91
2022-08-26T11:22:48.996Z,46.45
2022-08-26T11:24:53.871Z,46.17
2022-08-26T11:26:58.890Z,45.21
2022-08-26T11:29:13.928Z,44.99
2022-08-26T11:31:19.074Z,45.19
2022-08-26T11:33:25.605Z,45.16
2022-08-26T11:35:30.229Z,44.72
2022-08-26T11:37:41.507Z,44.42
2022-08-26T11:39:56.877Z,44.16
2022-08-26T11:42:01.825Z,43.34
2022-08-26T11:44:06.856Z,42.95
2022-08-26T11:46:12.573Z,42.5
2022-08-26T11:48:17.224Z,41.85
2022-08-26T11:50:21.819Z,40.84
2022-08-26T11:52:28.540Z,40.5
2022-08-26T11:54:37.851Z,40.95
2022-08-26T11:56:42.786Z,40.79
2022-08-26T11:58:47.398Z,40.94
2022-08-26T12:00:51.900Z,40.36
2022-08-26T12:02:57.658Z,40.09
2022-08-26T12:05:02.960Z,40.34
2022-08-26T12:07:10.726Z,39.82
2022-08-26T12:09:16.175Z,39.23
2022-08-26T12:11:24.544Z,39.43
2022-08-26T12:13:32.327Z,39.12
2022-08-26T12:15:37.693Z,39.08
2022-08-26T12:17:42.842Z,39.35
2022-08-26T12:19:47.541Z,39.23
2022-08-26T12:21:52.467Z,39.23
2022-08-26T12:23:57.289Z,39.72
2022-08-26T12:26:03.551Z,40.11
2022-08-26T12:28:08.960Z,40.14
2022-08-26T12:30:20.281Z,39.71
2022-08-26T12:32:26.682Z,38.85
2022-08-26T12:34:33.416Z,38.22
2022-08-26T12:36:38.246Z,37.89
2022-08-26T12:38:43.003Z,37.66
2022-08-26T12:40:47.791Z,37.56
2022-08-26T12:42:52.613Z,37.21
2022-08-26T12:44:57.383Z,37.03
2022-08-26T12:47:02.167Z,36.91
2022-08-26T12:49:06.978Z,36.77
2022-08-26T12:51:11.822Z,37.28
2022-08-26T12:53:16.537Z,37.2
2022-08-26T12:55:21.284Z,37.44
2022-08-26T12:57:26.097Z,37.69
2022-08-26T12:59:30.813Z,37.84
2022-08-26T13:01:35.975Z,37.94
2022-08-26T13:03:40.695Z,37.62
2022-08-26T13:05:45.356Z,38.56
2022-08-26T13:07:50.170Z,38.64
2022-08-26T13:09:54.888Z,37.79
2022-08-26T13:11:59.568Z,38.26
2022-08-26T13:14:09.821Z,37.78
2022-08-26T13:16:15.059Z,37.34
2022-08-26T13:18:19.887Z,36.8
2022-08-26T13:20:24.708Z,36.81
2022-08-26T13:22:29.510Z,36.77
2022-08-26T13:24:34.286Z,36.77
2022-08-26T13:26:39.017Z,36.78
2022-08-26T13:28:43.608Z,36.95
2022-08-26T13:30:48.430Z,37.39
2022-08-26T13:32:54.099Z,38.65
2022-08-26T13:35:00.844Z,39.56
2022-08-26T13:37:10.605Z,39.51
2022-08-26T13:39:15.352Z,39.64
2022-08-26T13:41:31.115Z,39.45
2022-08-26T13:43:35.869Z,39.66
2022-08-26T13:45:40.747Z,40.08
2022-08-26T13:47:45.577Z,40.48
2022-08-26T13:49:50.323Z,40.68
2022-08-26T13:51:55.006Z,40.25
2022-08-26T13:53:59.851Z,40.59
2022-08-26T13:56:10.459Z,40.29
2022-08-26T13:58:15.680Z,40.3
2022-08-26T14:00:21.415Z,39.87
2022-08-26T14:02:26.147Z,40.16
2022-08-26T14:04:30.946Z,40.54
2022-08-26T14:06:35.773Z,40.2
2022-08-26T14:08:40.541Z,41.02
2022-08-26T14:10:45.367Z,41.03
2022-08-26T14:12:50.159Z,40.94
2022-08-26T14:14:55.072Z,40.97
2022-08-26T14:17:02.465Z,41.16
2022-08-26T14:19:07.285Z,40.71
2022-08-26T14:21:12.029Z,40.6
2022-08-26T14:23:17.041Z,40.46
2022-08-26T14:25:21.867Z,40.71
2022-08-26T14:27:26.589Z,40.38
2022-08-26T14:29:31.343Z,41.15
2022-08-26T14:31:36.303Z,40.76
2022-08-26T14:33:41.176Z,40.63
2022-08-26T14:35:51.241Z,41.87
2022-08-26T14:37:55.945Z,41.54
2022-08-26T14:40:00.830Z,41.46
2022-08-26T14:42:06.386Z,41.02
2022-08-26T14:44:11.135Z,40.48
2022-08-26T14:46:17.473Z,40.71
2022-08-26T14:48:22.940Z,40.91
2022-08-26T14:50:27.670Z,40.25
2022-08-26T14:52:32.353Z,40.24
2022-08-26T14:54:37.113Z,40.5
2022-08-26T14:56:41.839Z,40.57
2022-08-26T14:58:46.660Z,39.83
2022-08-26T15:00:51.401Z,39.36
2022-08-26T15:02:56.674Z,38.76
2022-08-26T15:05:01.548Z,38.48
2022-08-26T15:07:06.375Z,39.08
2022-08-26T15:09:11.102Z,39.1
2022-08-26T15:11:15.893Z,39.69
2022-08-26T15:13:20.748Z,39.55
2022-08-26T15:15:25.584Z,39.55
2022-08-26T15:17:30.301Z,39.86
2022-08-26T15:19:35.126Z,39.61
2022-08-26T15:21:39.959Z,39.58
2022-08-26T15:23:49.951Z,39.86
2022-08-26T15:25:54.658Z,39.89
2022-08-26T15:27:59.384Z,40.09
2022-08-26T15:30:03.999Z,40.09
2022-08-26T15:32:08.567Z,40.2
2022-08-26T15:34:18.444Z,40.02
2022-08-26T15:36:23.185Z,39.95
2022-08-26T15:38:27.904Z,40.17
2022-08-26T15:40:32.997Z,40.18
2022-08-26T15:42:37.737Z,40.57
2022-08-26T15:44:42.459Z,40.62
2022-08-26T15:46:47.550Z,40.4
2022-08-26T15:48:52.266Z,40.4
2022-08-26T15:50:56.899Z,40.21
2022-08-26T15:53:01.662Z,40.67
2022-08-26T15:55:06.594Z,40.6
2022-08-26T15:57:18.761Z,40.72
2022-08-26T15:59:24.769Z,40.64
2022-08-26T16:01:30.304Z,40.6
2022-08-26T16:03:35.108Z,40.64
2022-08-26T16:05:40.227Z,40.49
2022-08-26T16:07:45.066Z,40.54
2022-08-26T16:09:56.454Z,40.56
2022-08-26T16:12:01.214Z,40.63
2022-08-26T16:14:06.020Z,40.48
2022-08-26T16:16:11.063Z,40.48
2022-08-26T16:18:15.906Z,40.65
2022-08-26T16:20:20.690Z,40.72
2022-08-26T16:22:29.587Z,40.84
2022-08-26T16:24:38.139Z,40.83
2022-08-26T16:26:43.809Z,40.91
2022-08-26T16:28:48.460Z,41.09
2022-08-26T16:30:53.593Z,40.89
2022-08-26T16:32:58.133Z,41.06
2022-08-26T16:35:02.824Z,40.84
2022-08-26T16:37:07.516Z,40.96
2022-08-26T16:39:12.225Z,40.97
2022-08-26T16:41:17.141Z,40.94
2022-08-26T16:43:21.887Z,41.07
2022-08-26T16:45:26.647Z,41.27
2022-08-26T16:47:31.416Z,42.61
2022-08-26T16:49:36.133Z,42.34
2022-08-26T16:51:40.982Z,41.18
2022-08-26T16:53:45.615Z,40.9
2022-08-26T16:55:50.308Z,40.93
2022-08-26T16:57:55.133Z,40.9
2022-08-26T17:00:00.015Z,41.42
2022-08-26T17:02:05.055Z,41.71
2022-08-26T17:04:09.737Z,41.94
2022-08-26T17:06:14.460Z,42.29
2022-08-26T17:08:30.970Z,42.28
2022-08-26T17:10:36.111Z,42.45
2022-08-26T17:12:40.896Z,42.57
2022-08-26T17:14:48.006Z,42.78
2022-08-26T17:16:52.810Z,42.85
2022-08-26T17:18:57.552Z,43.46
2022-08-26T17:21:02.197Z,43.55
2022-08-26T17:23:07.179Z,43.18
2022-08-26T17:25:11.979Z,42.76
2022-08-26T17:27:16.505Z,42.64
2022-08-26T17:29:21.970Z,42.64
2022-08-26T17:31:26.992Z,41.92
2022-08-26T17:33:31.862Z,41.99
2022-08-26T17:35:36.736Z,41.92
2022-08-26T17:37:41.257Z,41.83
2022-08-26T17:39:45.979Z,41.8
2022-08-26T17:41:50.453Z,41.6
2022-08-26T17:43:55.011Z,41.62
2022-08-26T17:46:08.611Z,41.82
2022-08-26T17:48:13.711Z,41.63
2022-08-26T17:50:18.151Z,41.6
2022-08-26T17:52:22.673Z,41.38
2022-08-26T17:54:29.293Z,41.59
2022-08-26T17:56:35.732Z,41.41
2022-08-26T17:58:40.471Z,41.69
2022-08-26T18:00:44.963Z,42.32
2022-08-26T18:02:49.493Z,42.56
2022-08-26T18:04:53.984Z,42.52
2022-08-26T18:06:58.547Z,42.45
2022-08-26T18:09:03.051Z,42.47
2022-08-26T18:11:07.554Z,42.6
2022-08-26T18:13:12.527Z,42.57
2022-08-26T18:15:17.012Z,42.29
2022-08-26T18:17:21.655Z,41.54
2022-08-26T18:19:26.145Z,41.45
2022-08-26T18:21:30.635Z,41.51
2022-08-26T18:23:35.191Z,41.75
2022-08-26T18:25:39.697Z,42.63
2022-08-26T18:27:44.353Z,42.48
2022-08-26T18:29:48.862Z,42.01
2022-08-26T18:31:53.496Z,42.08
2022-08-26T18:33:57.970Z,42.45
2022-08-26T18:36:02.526Z,42.38
2022-08-26T18:38:14.420Z,42.13
2022-08-26T18:40:19.256Z,41.7
2022-08-26T18:42:23.839Z,41.98
2022-08-26T18:44:28.391Z,41.87
2022-08-26T18:46:33.173Z,41.97
2022-08-26T18:48:37.625Z,42.17
2022-08-26T18:50:47.247Z,42.33
2022-08-26T18:52:51.839Z,42.5
2022-08-26T18:54:56.260Z,42.65
2022-08-26T18:57:02.766Z,42.76
2022-08-26T18:59:07.390Z,42.67
2022-08-26T19:01:12.464Z,42.69
2022-08-26T19:03:21.216Z,42.9
2022-08-26T19:05:26.489Z,43.01
2022-08-26T19:07:30.947Z,43.3
2022-08-26T19:09:37.150Z,43.41
2022-08-26T19:11:45.862Z,43.53
2022-08-26T19:13:52.719Z,43.5
2022-08-26T19:15:57.257Z,43.45
2022-08-26T19:18:01.706Z,43.5
2022-08-26T19:20:06.281Z,43.31
2022-08-26T19:22:10.902Z,43.31
2022-08-26T19:24:15.564Z,43.45
2022-08-26T19:26:20.129Z,43.35
2022-08-26T19:28:24.776Z,43.19
2022-08-26T19:30:33.258Z,43.24
2022-08-26T19:32:37.744Z,43.41
2022-08-26T19:34:42.195Z,43.34
2022-08-26T19:36:48.896Z,43.41
2022-08-26T19:38:53.396Z,43.24
2022-08-26T19:40:57.918Z,43
2022-08-26T19:43:02.503Z,42.92
2022-08-26T19:45:07.066Z,43.01
2022-08-26T19:47:13.870Z,43.16
2022-08-26T19:49:18.562Z,43.18
2022-08-26T19:51:23.161Z,43.22
2022-08-26T19:53:27.707Z,43.17
2022-08-26T19:55:32.193Z,43.39
2022-08-26T19:57:36.717Z,43.77
2022-08-26T19:59:41.232Z,43.89
2022-08-26T20:01:45.796Z,43.86
2022-08-26T20:03:59.918Z,44.22
2022-08-26T20:06:04.394Z,44.57
2022-08-26T20:08:23.499Z,45.87
2022-08-26T20:10:27.974Z,46.14
2022-08-26T20:12:32.744Z,45.55
2022-08-26T20:14:37.362Z,44.08
2022-08-26T20:16:42.217Z,43.97
2022-08-26T20:18:46.793Z,43.98
2022-08-26T20:20:51.322Z,44.28
2022-08-26T20:22:56.084Z,44.45
2022-08-26T20:25:00.889Z,44.49
2022-08-26T20:27:10.086Z,44.59
2022-08-26T20:29:15.042Z,44.53
2022-08-26T20:31:19.895Z,44.51
2022-08-26T20:33:24.693Z,43.99
2022-08-26T20:35:29.518Z,43.63
2022-08-26T20:37:34.347Z,43.68
2022-08-26T20:39:39.125Z,43.63
2022-08-26T20:41:46.381Z,43.52
2022-08-26T20:43:51.175Z,43.47
2022-08-26T20:45:56.126Z,43.49
2022-08-26T20:48:00.863Z,43.4
2022-08-26T20:50:05.661Z,43.39
2022-08-26T20:52:10.332Z,43.38
2022-08-26T20:54:15.714Z,43.57
2022-08-26T20:56:20.450Z,43.9
2022-08-26T20:58:25.189Z,44.12
2022-08-26T21:00:30.894Z,44.19
2022-08-26T21:02:35.839Z,44.35
2022-08-26T21:04:40.721Z,44.52
2022-08-26T21:06:55.607Z,44.73
2022-08-26T21:09:00.978Z,44.4
2022-08-26T21:11:08.822Z,44.39
2022-08-26T21:13:15.203Z,44.55
2022-08-26T21:15:20.048Z,44.4
2022-08-26T21:17:24.788Z,44.47
2022-08-26T21:19:29.597Z,44.57
2022-08-26T21:21:34.259Z,44.68
2022-08-26T21:23:39.047Z,44.76
2022-08-26T21:25:46.434Z,44.93
2022-08-26T21:27:51.154Z,45.01
2022-08-26T21:29:55.845Z,45.15
2022-08-26T21:32:00.839Z,45.42
2022-08-26T21:34:05.629Z,45.68
2022-08-26T21:36:10.357Z,45.86
2022-08-26T21:38:15.187Z,46.06
2022-08-26T21:40:20.183Z,46.21
2022-08-26T21:42:25.177Z,46.33
2022-08-26T21:44:29.890Z,46.35
2022-08-26T21:46:34.707Z,46.34
2022-08-26T21:48:39.526Z,46.29
2022-08-26T21:50:44.348Z,46.29
2022-08-26T21:52:49.098Z,46.24
2022-08-26T21:54:54.649Z,46.17
2022-08-26T21:56:59.342Z,46.44
2022-08-26T21:59:04.166Z,46.52
2022-08-26T22:01:08.945Z,46.53
2022-08-26T22:03:13.710Z,46.44
2022-08-26T22:05:18.541Z,46.41
2022-08-26T22:07:23.270Z,46.22
2022-08-26T22:09:28.094Z,46.25
2022-08-26T22:11:32.916Z,46.37
2022-08-26T22:13:37.584Z,46.4
2022-08-26T22:15:42.179Z,46.46
2022-08-26T22:17:46.987Z,46.63
2022-08-26T22:19:52.943Z,46.7
2022-08-26T22:21:57.689Z,46.71
2022-08-26T22:24:02.486Z,46.65
2022-08-26T22:26:07.174Z,46.6
2022-08-26T22:28:12.483Z,46.43
2022-08-26T22:30:17.170Z,46.46
2022-08-26T22:32:22.000Z,46.52
2022-08-26T22:34:26.824Z,46.63
2022-08-26T22:36:31.647Z,46.57
2022-08-26T22:38:36.383Z,46.57
2022-08-26T22:40:41.098Z,46.59
2022-08-26T22:43:01.672Z,46.77
2022-08-26T22:45:07.870Z,46.81
2022-08-26T22:47:12.584Z,46.75
2022-08-26T22:49:18.363Z,46.68
2022-08-26T22:51:23.149Z,46.66
2022-08-26T22:53:27.938Z,46.65
2022-08-26T22:55:32.623Z,46.65
2022-08-26T22:57:37.428Z,46.62
2022-08-26T22:59:44.630Z,46.59
2022-08-26T23:01:49.433Z,46.61
2022-08-26T23:03:54.182Z,46.6
2022-08-26T23:05:58.877Z,46.53
2022-08-26T23:08:03.891Z,46.61
2022-08-26T23:10:08.634Z,46.55
2022-08-26T23:12:13.466Z,46.61
2022-08-26T23:14:18.151Z,46.71
2022-08-26T23:16:23.172Z,46.77
2022-08-26T23:18:28.042Z,46.65
2022-08-26T23:20:32.869Z,46.77
2022-08-26T23:22:37.628Z,46.79
2022-08-26T23:24:42.415Z,46.72
2022-08-26T23:26:47.137Z,46.85
2022-08-26T23:28:51.967Z,46.97
2022-08-26T23:30:56.897Z,46.9
2022-08-26T23:33:01.578Z,47.03
2022-08-26T23:35:06.458Z,46.89
2022-08-26T23:37:11.095Z,47.02
2022-08-26T23:39:15.892Z,46.96
2022-08-26T23:41:20.716Z,47
2022-08-26T23:43:25.445Z,46.97
2022-08-26T23:45:30.400Z,47.05
2022-08-26T23:47:35.196Z,47.2
2022-08-26T23:49:39.881Z,47.23
2022-08-26T23:51:49.426Z,47.35
2022-08-26T23:53:54.182Z,47.46
2022-08-26T23:55:58.941Z,47.53
2022-08-26T23:58:03.850Z,47.76
